createdAt,value
2019-03-21T00:02:07.362Z,11.00
2019-03-21T00:04:38.093Z,11.00
2019-03-21T00:07:08.861Z,11.00
2019-03-21T00:09:39.958Z,10.90
2019-03-21T00:12:11.577Z,10.90
2019-03-21T00:14:59.252Z,10.90
2019-03-21T00:17:42.903Z,10.90
2019-03-21T00:20:17.075Z,11.00
2019-03-21T00:22:47.442Z,10.90
2019-03-21T00:25:25.173Z,11.00
2019-03-21T00:27:55.549Z,10.90
2019-03-21T00:30:27.556Z,10.90
2019-03-21T00:32:58.490Z,10.90
2019-03-21T00:35:28.865Z,10.80
2019-03-21T00:37:59.471Z,10.80
2019-03-21T00:40:37.001Z,10.80
2019-03-21T00:43:11.042Z,10.90
2019-03-21T00:45:41.656Z,10.90
2019-03-21T00:48:16.338Z,10.90
2019-03-21T00:50:46.954Z,10.90
2019-03-21T00:53:17.718Z,10.90
2019-03-21T00:55:53.784Z,10.90
2019-03-21T00:58:24.196Z,10.90
2019-03-21T01:01:02.329Z,10.90
2019-03-21T01:03:32.753Z,10.90
2019-03-21T01:06:03.124Z,10.90
2019-03-21T01:08:33.890Z,10.90
2019-03-21T01:11:04.823Z,10.80
2019-03-21T01:13:40.842Z,10.80
2019-03-21T01:16:11.810Z,10.80
2019-03-21T01:18:46.421Z,10.80
2019-03-21T01:21:16.843Z,10.90
2019-03-21T01:23:47.226Z,10.80
2019-03-21T01:26:17.596Z,10.90
2019-03-21T01:28:48.107Z,10.90
2019-03-21T01:31:19.123Z,10.80
2019-03-21T01:33:49.563Z,10.80
2019-03-21T01:36:23.209Z,10.80
2019-03-21T01:38:53.851Z,10.80
2019-03-21T01:41:24.537Z,10.80
2019-03-21T01:43:55.478Z,10.80
2019-03-21T01:46:27.515Z,10.80
2019-03-21T01:48:57.976Z,10.70
2019-03-21T01:51:28.714Z,10.70
2019-03-21T01:53:59.065Z,10.70
2019-03-21T01:56:31.772Z,10.70
2019-03-21T01:59:02.905Z,10.70
2019-03-21T02:01:33.593Z,10.70
2019-03-21T02:04:04.618Z,10.70
2019-03-21T02:06:35.365Z,10.80
2019-03-21T02:09:08.188Z,10.80
2019-03-21T02:11:38.957Z,10.80
2019-03-21T02:14:10.351Z,10.80
2019-03-21T02:16:41.697Z,10.80
2019-03-21T02:19:12.431Z,10.80
2019-03-21T02:21:42.914Z,10.80
2019-03-21T02:24:13.593Z,10.70
2019-03-21T02:26:45.061Z,10.70
2019-03-21T02:29:16.012Z,10.70
2019-03-21T02:31:46.364Z,10.70
2019-03-21T02:34:16.702Z,10.60
2019-03-21T02:36:47.510Z,10.60
2019-03-21T02:39:17.853Z,10.70
2019-03-21T02:41:49.062Z,10.60
2019-03-21T02:44:19.767Z,10.70
2019-03-21T02:46:50.314Z,10.70
2019-03-21T02:49:20.690Z,10.70
2019-03-21T02:51:51.400Z,10.70
2019-03-21T02:54:21.784Z,10.70
2019-03-21T02:56:52.461Z,10.60
2019-03-21T02:59:23.279Z,10.60
2019-03-21T03:01:53.643Z,10.60
2019-03-21T03:04:24.005Z,10.60
2019-03-21T03:06:54.402Z,10.60
2019-03-21T03:09:24.740Z,10.70
2019-03-21T03:11:55.081Z,10.70
2019-03-21T03:14:45.256Z,10.60
2019-03-21T03:17:15.627Z,10.60
2019-03-21T03:19:46.399Z,10.70
2019-03-21T03:22:17.089Z,10.60
2019-03-21T03:24:47.725Z,10.60
2019-03-21T03:27:18.541Z,10.70
2019-03-21T03:29:49.634Z,10.60
2019-03-21T03:32:19.985Z,10.60
2019-03-21T03:34:51.003Z,10.60
2019-03-21T03:37:21.373Z,10.60
2019-03-21T03:39:52.051Z,10.50
2019-03-21T03:42:22.423Z,10.60
2019-03-21T03:44:53.124Z,10.60
2019-03-21T03:47:24.173Z,10.60
2019-03-21T03:49:54.885Z,10.60
2019-03-21T03:52:25.635Z,10.60
2019-03-21T03:54:56.270Z,10.60
2019-03-21T03:57:27.010Z,10.60
2019-03-21T03:59:57.818Z,10.60
2019-03-21T04:02:28.190Z,10.60
2019-03-21T04:04:58.550Z,10.60
2019-03-21T04:07:29.741Z,10.60
2019-03-21T04:10:00.231Z,10.50
2019-03-21T04:12:30.861Z,10.50
2019-03-21T04:15:01.248Z,10.50
2019-03-21T04:17:31.876Z,10.50
2019-03-21T04:20:02.243Z,10.50
2019-03-21T04:22:32.635Z,10.50
2019-03-21T04:25:03.400Z,10.50
2019-03-21T04:27:34.306Z,10.50
2019-03-21T04:30:12.947Z,10.50
2019-03-21T04:32:43.289Z,10.50
2019-03-21T04:35:14.572Z,10.50
2019-03-21T04:37:45.653Z,10.50
2019-03-21T04:40:20.374Z,10.50
2019-03-21T04:42:51.435Z,10.50
2019-03-21T04:45:25.012Z,10.40
2019-03-21T04:47:55.658Z,10.40
2019-03-21T04:50:33.238Z,10.40
2019-03-21T04:53:03.601Z,10.30
2019-03-21T04:55:33.935Z,10.30
2019-03-21T04:58:04.627Z,10.30
2019-03-21T05:01:02.833Z,10.30
2019-03-21T05:03:34.155Z,10.40
2019-03-21T05:06:04.953Z,10.40
2019-03-21T05:08:35.652Z,10.40
2019-03-21T05:11:06.027Z,10.40
2019-03-21T05:13:36.688Z,10.40
2019-03-21T05:16:14.656Z,10.40
2019-03-21T05:18:50.459Z,10.50
2019-03-21T05:21:24.466Z,10.50
2019-03-21T05:23:54.832Z,10.50
2019-03-21T05:26:25.233Z,10.50
2019-03-21T05:28:56.387Z,10.40
2019-03-21T05:31:52.043Z,10.30
2019-03-21T05:34:23.015Z,10.40
2019-03-21T05:36:53.682Z,10.40
2019-03-21T05:39:24.725Z,10.40
2019-03-21T05:41:55.094Z,10.50
2019-03-21T05:44:33.055Z,10.50
2019-03-21T05:47:03.423Z,10.50
2019-03-21T05:49:34.037Z,10.60
2019-03-21T05:52:04.844Z,10.60
2019-03-21T05:54:35.577Z,10.60
2019-03-21T05:57:06.327Z,10.60
2019-03-21T05:59:37.025Z,10.60
2019-03-21T06:02:07.704Z,10.60
2019-03-21T06:04:38.081Z,10.60
2019-03-21T06:07:25.379Z,10.70
2019-03-21T06:09:55.815Z,10.70
2019-03-21T06:12:26.524Z,10.70
2019-03-21T06:15:01.444Z,10.70
2019-03-21T06:17:32.536Z,10.80
2019-03-21T06:20:23.101Z,10.80
2019-03-21T06:23:01.398Z,10.90
2019-03-21T06:26:03.777Z,10.90
2019-03-21T06:28:34.112Z,10.90
2019-03-21T06:31:05.230Z,10.90
2019-03-21T06:33:35.610Z,10.90
2019-03-21T06:36:05.953Z,10.90
2019-03-21T06:38:36.691Z,11.00
2019-03-21T06:41:07.154Z,11.00
2019-03-21T06:43:38.244Z,11.00
2019-03-21T06:46:09.664Z,11.00
2019-03-21T06:48:40.089Z,11.00
2019-03-21T06:51:10.460Z,11.00
2019-03-21T06:53:41.583Z,11.00
2019-03-21T06:56:12.626Z,11.10
2019-03-21T06:58:43.008Z,11.10
2019-03-21T07:01:13.662Z,11.10
2019-03-21T07:03:44.080Z,11.10
2019-03-21T07:06:14.848Z,11.10
2019-03-21T07:08:45.489Z,11.20
2019-03-21T07:11:15.867Z,11.20
2019-03-21T07:13:46.219Z,11.30
2019-03-21T07:16:16.932Z,11.30
2019-03-21T07:18:47.878Z,11.40
2019-03-21T07:21:18.599Z,11.40
2019-03-21T07:23:49.341Z,11.50
2019-03-21T07:26:20.095Z,11.40
2019-03-21T07:28:50.470Z,11.40
2019-03-21T07:31:21.189Z,11.50
2019-03-21T07:33:52.868Z,11.50
2019-03-21T07:36:26.156Z,11.50
2019-03-21T07:38:55.984Z,11.60
2019-03-21T07:41:26.379Z,11.60
2019-03-21T07:43:57.007Z,11.60
2019-03-21T07:46:28.067Z,11.60
2019-03-21T07:48:59.518Z,11.60
2019-03-21T07:51:30.976Z,11.60
2019-03-21T07:54:01.349Z,11.60
2019-03-21T07:56:32.025Z,11.60
2019-03-21T07:59:02.774Z,11.60
2019-03-21T08:01:33.141Z,11.70
2019-03-21T08:04:03.815Z,11.70
2019-03-21T08:06:34.864Z,11.70
2019-03-21T08:09:07.421Z,11.80
2019-03-21T08:11:38.074Z,11.80
2019-03-21T08:14:08.690Z,11.80
2019-03-21T08:16:39.660Z,11.80
2019-03-21T08:19:10.362Z,11.80
2019-03-21T08:21:40.737Z,11.90
2019-03-21T08:24:11.457Z,11.80
2019-03-21T08:26:42.278Z,11.80
2019-03-21T08:29:12.615Z,11.80
2019-03-21T08:31:43.362Z,11.80
2019-03-21T08:34:13.754Z,11.80
2019-03-21T08:36:45.517Z,11.90
2019-03-21T08:39:15.858Z,11.90
2019-03-21T08:41:46.246Z,11.90
2019-03-21T08:44:16.883Z,11.90
2019-03-21T08:46:47.618Z,11.90
2019-03-21T08:49:18.064Z,12.00
2019-03-21T08:51:48.702Z,12.00
2019-03-21T08:54:19.976Z,12.00
2019-03-21T08:56:50.705Z,12.00
2019-03-21T08:59:21.944Z,12.10
2019-03-21T09:01:52.321Z,12.10
2019-03-21T09:04:23.651Z,12.10
2019-03-21T09:06:54.417Z,12.00
2019-03-21T09:09:25.061Z,12.00
2019-03-21T09:11:55.723Z,12.10
2019-03-21T09:14:26.068Z,12.20
2019-03-21T09:16:57.111Z,12.20
2019-03-21T09:19:27.895Z,12.30
2019-03-21T09:21:58.269Z,12.30
2019-03-21T09:24:29.173Z,12.40
2019-03-21T09:26:59.579Z,12.50
2019-03-21T09:29:30.586Z,12.50
2019-03-21T09:32:01.333Z,12.60
2019-03-21T09:34:32.254Z,12.60
2019-03-21T09:37:04.104Z,12.70
2019-03-21T09:39:34.688Z,12.70
2019-03-21T09:42:05.037Z,12.80
2019-03-21T09:44:35.716Z,12.80
2019-03-21T09:47:06.475Z,12.80
2019-03-21T09:49:36.850Z,12.70
2019-03-21T09:52:07.454Z,12.60
2019-03-21T09:54:38.155Z,12.70
2019-03-21T09:57:08.526Z,12.70
2019-03-21T09:59:38.912Z,12.70
2019-03-21T10:02:09.273Z,12.70
2019-03-21T10:04:39.618Z,12.80
2019-03-21T10:07:10.072Z,12.80
2019-03-21T10:09:40.779Z,12.70
2019-03-21T10:12:11.188Z,12.70
2019-03-21T10:14:41.930Z,12.70
2019-03-21T10:17:12.399Z,12.80
2019-03-21T10:19:42.772Z,12.80
2019-03-21T10:22:14.223Z,12.70
2019-03-21T10:24:45.296Z,12.70
2019-03-21T10:27:15.967Z,12.70
2019-03-21T10:29:46.506Z,12.70
2019-03-21T10:32:17.498Z,12.80
2019-03-21T10:34:48.202Z,12.80
2019-03-21T10:37:19.323Z,12.70
2019-03-21T10:39:49.710Z,12.70
2019-03-21T10:42:20.094Z,12.80
2019-03-21T10:44:50.498Z,12.90
2019-03-21T10:47:21.676Z,12.90
2019-03-21T10:49:52.728Z,12.90
2019-03-21T10:52:23.128Z,13.00
2019-03-21T10:54:54.226Z,13.10
2019-03-21T10:57:24.982Z,13.00
2019-03-21T10:59:55.808Z,13.00
2019-03-21T11:02:26.155Z,13.00
2019-03-21T11:04:56.531Z,13.00
2019-03-21T11:07:27.296Z,13.00
2019-03-21T11:09:58.238Z,13.00
2019-03-21T11:12:28.611Z,12.90
2019-03-21T11:14:59.298Z,12.90
2019-03-21T11:17:29.656Z,13.00
2019-03-21T11:20:00.365Z,12.90
2019-03-21T11:22:31.062Z,12.90
2019-03-21T11:25:01.784Z,13.00
2019-03-21T11:27:32.418Z,13.00
2019-03-21T11:30:02.876Z,12.90
2019-03-21T11:32:33.226Z,12.90
2019-03-21T11:35:05.509Z,12.90
2019-03-21T11:37:35.992Z,12.90
2019-03-21T11:40:06.881Z,12.90
2019-03-21T11:42:37.983Z,12.90
2019-03-21T11:45:09.033Z,13.00
2019-03-21T11:47:42.205Z,13.00
2019-03-21T11:50:11.965Z,13.00
2019-03-21T11:52:43.359Z,13.00
2019-03-21T11:55:14.193Z,12.90
2019-03-21T11:57:44.575Z,12.90
2019-03-21T12:00:16.496Z,12.90
2019-03-21T12:02:47.453Z,12.90
2019-03-21T12:05:17.825Z,13.00
2019-03-21T12:07:48.204Z,13.00
2019-03-21T12:10:18.552Z,13.10
2019-03-21T12:12:49.867Z,13.10
2019-03-21T12:15:20.585Z,13.20
2019-03-21T12:17:51.860Z,13.10
2019-03-21T12:20:33.510Z,13.20
2019-03-21T12:23:04.218Z,13.20
2019-03-21T12:25:34.586Z,13.30
2019-03-21T12:28:05.009Z,13.40
2019-03-21T12:30:38.336Z,13.40
2019-03-21T12:33:09.094Z,13.40
2019-03-21T12:35:40.244Z,13.40
2019-03-21T12:38:10.597Z,13.40
2019-03-21T12:40:41.381Z,13.40
2019-03-21T12:43:12.155Z,13.30
2019-03-21T12:45:42.507Z,13.40
2019-03-21T12:48:13.209Z,13.40
2019-03-21T12:50:44.658Z,13.50
2019-03-21T12:53:16.071Z,13.50
2019-03-21T12:55:46.845Z,13.50
2019-03-21T12:58:17.191Z,13.50
2019-03-21T13:00:47.831Z,13.50
2019-03-21T13:03:18.232Z,13.50
2019-03-21T13:05:49.337Z,13.50
2019-03-21T13:08:19.736Z,13.50
2019-03-21T13:10:50.413Z,13.60
2019-03-21T13:13:21.173Z,13.60
2019-03-21T13:15:51.803Z,13.60
2019-03-21T13:18:22.460Z,13.60
2019-03-21T13:20:52.812Z,13.60
2019-03-21T13:23:23.232Z,13.70
2019-03-21T13:25:54.003Z,13.80
2019-03-21T13:28:24.381Z,13.80
2019-03-21T13:30:54.759Z,13.80
2019-03-21T13:33:25.176Z,13.80
2019-03-21T13:35:55.856Z,13.80
2019-03-21T13:38:26.595Z,13.80
2019-03-21T13:40:57.371Z,13.80
2019-03-21T13:43:27.826Z,13.70
2019-03-21T13:45:59.045Z,13.80
2019-03-21T13:48:30.146Z,13.80
2019-03-21T13:51:00.889Z,13.70
2019-03-21T13:53:31.232Z,13.60
2019-03-21T13:56:02.777Z,13.50
2019-03-21T13:58:33.412Z,13.40
2019-03-21T14:01:03.846Z,13.40
2019-03-21T14:03:34.984Z,13.40
2019-03-21T14:06:05.728Z,13.40
2019-03-21T14:08:36.464Z,13.40
2019-03-21T14:11:06.890Z,13.50
2019-03-21T14:13:37.596Z,13.50
2019-03-21T14:16:08.258Z,13.60
2019-03-21T14:18:38.648Z,13.60
2019-03-21T14:21:09.010Z,13.60
2019-03-21T14:23:43.452Z,13.70
2019-03-21T14:26:12.149Z,13.70
2019-03-21T14:28:42.855Z,13.80
2019-03-21T14:31:13.998Z,13.80
2019-03-21T14:33:44.758Z,13.80
2019-03-21T14:36:15.664Z,13.90
2019-03-21T14:38:46.279Z,13.90
2019-03-21T14:41:17.091Z,13.90
2019-03-21T14:43:47.797Z,13.90
2019-03-21T14:46:18.504Z,13.90
2019-03-21T14:48:48.871Z,14.00
2019-03-21T14:51:19.806Z,14.00
2019-03-21T14:53:51.036Z,14.00
2019-03-21T14:56:21.743Z,14.00
2019-03-21T14:58:52.407Z,14.00
2019-03-21T15:01:23.044Z,13.90
2019-03-21T15:03:53.840Z,14.00
2019-03-21T15:06:24.524Z,13.90
2019-03-21T15:08:55.242Z,14.00
2019-03-21T15:11:26.602Z,13.90
2019-03-21T15:13:57.317Z,13.90
2019-03-21T15:16:28.062Z,13.90
2019-03-21T15:18:58.453Z,13.90
2019-03-21T15:21:29.150Z,14.00
2019-03-21T15:24:00.050Z,13.90
2019-03-21T15:26:30.973Z,13.90
2019-03-21T15:29:01.737Z,13.90
2019-03-21T15:31:32.581Z,13.80
2019-03-21T15:34:02.956Z,13.70
2019-03-21T15:36:33.709Z,13.60
2019-03-21T15:39:07.511Z,13.60
2019-03-21T15:41:39.018Z,13.50
2019-03-21T15:44:09.370Z,13.60
2019-03-21T15:46:40.036Z,13.60
2019-03-21T15:49:10.686Z,13.60
2019-03-21T15:51:41.346Z,13.60
2019-03-21T15:54:11.963Z,13.70
2019-03-21T15:56:42.796Z,13.70
2019-03-21T15:59:13.522Z,13.70
2019-03-21T16:01:44.578Z,13.70
2019-03-21T16:04:15.321Z,13.80
2019-03-21T16:06:46.074Z,13.80
2019-03-21T16:09:16.788Z,13.80
2019-03-21T16:11:47.223Z,13.80
2019-03-21T16:14:17.696Z,13.80
2019-03-21T16:16:48.044Z,13.80
2019-03-21T16:19:18.908Z,13.80
2019-03-21T16:21:49.651Z,13.70
2019-03-21T16:24:20.310Z,13.70
2019-03-21T16:26:50.765Z,13.60
2019-03-21T16:29:21.484Z,13.50
2019-03-21T16:31:52.185Z,13.50
2019-03-21T16:34:22.571Z,13.40
2019-03-21T16:36:53.250Z,13.30
2019-03-21T16:39:23.882Z,13.30
2019-03-21T16:41:54.644Z,13.20
2019-03-21T16:44:25.684Z,13.20
2019-03-21T16:46:56.932Z,13.10
2019-03-21T16:49:28.065Z,13.10
2019-03-21T16:51:58.926Z,13.00
2019-03-21T16:54:30.408Z,12.90
2019-03-21T16:57:00.874Z,12.70
2019-03-21T16:59:31.542Z,12.60
2019-03-21T17:02:01.912Z,12.50
2019-03-21T17:04:32.618Z,12.40
2019-03-21T17:07:02.988Z,12.40
2019-03-21T17:09:33.333Z,12.30
2019-03-21T17:12:03.760Z,12.20
2019-03-21T17:14:34.107Z,12.00
2019-03-21T17:17:04.502Z,12.00
2019-03-21T17:19:35.313Z,12.00
2019-03-21T17:22:06.024Z,12.00
2019-03-21T17:24:36.379Z,12.00
2019-03-21T17:27:07.459Z,11.90
2019-03-21T17:29:38.513Z,11.70
2019-03-21T17:32:08.878Z,11.70
2019-03-21T17:34:39.555Z,11.60
2019-03-21T17:37:09.903Z,11.50
2019-03-21T17:39:40.273Z,11.40
2019-03-21T17:42:11.165Z,11.30
2019-03-21T17:44:41.515Z,11.20
2019-03-21T17:47:12.300Z,11.10
2019-03-21T17:49:42.719Z,11.10
2019-03-21T17:52:13.389Z,11.00
2019-03-21T17:54:44.029Z,10.90
2019-03-21T17:57:15.041Z,10.80
2019-03-21T17:59:45.453Z,10.70
2019-03-21T18:02:16.146Z,10.50
2019-03-21T18:04:46.886Z,10.50
2019-03-21T18:07:17.599Z,10.40
2019-03-21T18:09:47.959Z,10.30
2019-03-21T18:12:18.377Z,10.30
2019-03-21T18:14:49.493Z,10.30
2019-03-21T18:17:19.962Z,10.30
2019-03-21T18:19:50.783Z,10.20
2019-03-21T18:22:21.489Z,10.10
2019-03-21T18:24:54.055Z,10.10
2019-03-21T18:27:24.238Z,10.00
2019-03-21T18:29:54.590Z,10.00
2019-03-21T18:32:25.410Z,9.90
2019-03-21T18:34:56.057Z,9.90
2019-03-21T18:37:26.741Z,9.90
2019-03-21T18:39:57.350Z,9.80
2019-03-21T18:42:28.463Z,9.80
2019-03-21T18:44:58.821Z,9.70
2019-03-21T18:47:29.797Z,9.70
2019-03-21T18:50:01.880Z,9.60
2019-03-21T18:52:32.512Z,9.60
2019-03-21T18:55:06.542Z,9.70
2019-03-21T18:57:35.829Z,9.60
2019-03-21T19:00:11.354Z,9.60
2019-03-21T19:02:41.757Z,9.60
2019-03-21T19:05:12.527Z,9.50
2019-03-21T19:07:42.908Z,9.50
2019-03-21T19:10:15.354Z,9.40
2019-03-21T19:12:45.739Z,9.30
2019-03-21T19:15:19.576Z,9.30
2019-03-21T19:17:50.531Z,9.30
2019-03-21T19:20:21.264Z,9.30
2019-03-21T19:22:52.001Z,9.30
2019-03-21T19:25:22.716Z,9.30
2019-03-21T19:27:53.494Z,9.20
2019-03-21T19:30:24.901Z,9.20
2019-03-21T19:32:55.555Z,9.10
2019-03-21T19:35:26.162Z,9.10
2019-03-21T19:37:56.541Z,9.00
2019-03-21T19:40:26.886Z,9.00
2019-03-21T19:42:57.353Z,8.90
2019-03-21T19:45:27.963Z,8.90
2019-03-21T19:47:58.339Z,8.90
2019-03-21T19:50:28.843Z,8.90
2019-03-21T19:52:59.832Z,8.80
2019-03-21T19:55:31.393Z,8.80
2019-03-21T19:58:02.197Z,8.70
2019-03-21T20:00:32.804Z,8.80
2019-03-21T20:03:03.157Z,8.70
2019-03-21T20:05:33.890Z,8.70
2019-03-21T20:08:04.835Z,8.70
2019-03-21T20:10:35.207Z,8.70
2019-03-21T20:13:05.571Z,8.70
2019-03-21T20:15:36.544Z,8.70
2019-03-21T20:18:07.259Z,8.70
2019-03-21T20:20:37.989Z,8.70
2019-03-21T20:23:09.069Z,8.70
2019-03-21T20:25:43.167Z,8.60
2019-03-21T20:28:11.918Z,8.60
2019-03-21T20:30:42.280Z,8.50
2019-03-21T20:33:12.607Z,8.50
2019-03-21T20:35:43.374Z,8.50
2019-03-21T20:38:13.795Z,8.50
2019-03-21T20:40:44.165Z,8.60
2019-03-21T20:43:14.842Z,8.60
2019-03-21T20:45:45.502Z,8.60
2019-03-21T20:48:15.901Z,8.60
2019-03-21T20:50:46.648Z,8.60
2019-03-21T20:53:17.027Z,8.60
2019-03-21T20:55:53.585Z,8.60
2019-03-21T20:58:19.766Z,8.60
2019-03-21T21:00:50.255Z,8.60
2019-03-21T21:03:20.888Z,8.60
2019-03-21T21:05:51.259Z,8.60
2019-03-21T21:08:21.892Z,8.60
2019-03-21T21:10:52.649Z,8.60
2019-03-21T21:13:23.019Z,8.50
2019-03-21T21:15:53.371Z,8.60
2019-03-21T21:18:24.110Z,8.50
2019-03-21T21:20:54.540Z,8.60
2019-03-21T21:23:25.154Z,8.50
2019-03-21T21:26:05.085Z,8.50
2019-03-21T21:28:28.292Z,8.50
2019-03-21T21:30:58.959Z,8.50
2019-03-21T21:33:29.785Z,8.40
2019-03-21T21:36:00.590Z,8.30
2019-03-21T21:38:31.136Z,8.20
2019-03-21T21:41:01.771Z,8.20
2019-03-21T21:43:32.813Z,8.20
2019-03-21T21:46:04.477Z,8.20
2019-03-21T21:48:34.823Z,8.20
2019-03-21T21:51:05.191Z,8.20
2019-03-21T21:53:35.560Z,8.30
2019-03-21T21:56:17.247Z,8.40
2019-03-21T21:58:38.758Z,8.30
2019-03-21T22:01:09.403Z,8.30
2019-03-21T22:03:40.032Z,8.30
2019-03-21T22:06:10.758Z,8.30
2019-03-21T22:08:41.817Z,8.30
2019-03-21T22:11:12.497Z,8.30
2019-03-21T22:13:42.904Z,8.30
2019-03-21T22:16:13.296Z,8.20
2019-03-21T22:18:43.943Z,8.10
2019-03-21T22:21:14.576Z,8.00
2019-03-21T22:23:44.925Z,7.90
2019-03-21T22:26:15.615Z,7.80
2019-03-21T22:28:45.979Z,7.70
2019-03-21T22:31:16.691Z,7.60
2019-03-21T22:33:47.071Z,7.60
2019-03-21T22:36:17.813Z,7.50
2019-03-21T22:38:48.812Z,7.50
2019-03-21T22:41:19.475Z,7.50
2019-03-21T22:43:50.184Z,7.50
2019-03-21T22:46:20.561Z,7.60
2019-03-21T22:48:50.928Z,7.50
2019-03-21T22:51:22.063Z,7.50
2019-03-21T22:53:52.442Z,7.50
2019-03-21T22:56:23.046Z,7.50
2019-03-21T22:58:53.782Z,7.50
2019-03-21T23:01:24.220Z,7.40
2019-03-21T23:03:54.592Z,7.30
2019-03-21T23:06:24.928Z,7.20
2019-03-21T23:08:55.320Z,6.90
2019-03-21T23:11:26.024Z,6.90
2019-03-21T23:13:56.398Z,7.00
2019-03-21T23:16:27.521Z,7.00
2019-03-21T23:18:58.533Z,7.00
2019-03-21T23:21:29.155Z,6.90
2019-03-21T23:23:59.959Z,6.90
2019-03-21T23:26:30.513Z,6.90
2019-03-21T23:29:00.871Z,6.90
2019-03-21T23:31:31.936Z,6.80
2019-03-21T23:34:02.782Z,6.80
2019-03-21T23:36:33.808Z,6.80
2019-03-21T23:39:04.851Z,6.80
2019-03-21T23:41:35.233Z,6.80
2019-03-21T23:44:05.565Z,6.80
2019-03-21T23:46:36.645Z,6.80
2019-03-21T23:49:06.990Z,6.80
2019-03-21T23:51:37.702Z,6.80
2019-03-21T23:54:08.038Z,6.80
2019-03-21T23:56:39.172Z,6.80
2019-03-21T23:59:10.213Z,6.80
